Time;durP1;ratioP1;P1;durP2;ratioP2;P2;SDS_P1;SDS_P2;PMS_P1;PMS_P2;Temp;Humidity;BMP_temperature;BMP_pressure;BME280_temperature;BME280_humidity;BME280_pressure;Samples;Min_cycle;Max_cycle;Signal;HPM_P1;HPM_P2
2024/04/10 00:01:06;;;;;;;15.63;6.40;;;12.10;99.90;;;12.25;82.86;101838.41;5451247;26;20017;-68
2024/04/10 00:03:36;;;;;;;16.75;6.57;;;12.00;99.90;;;12.25;83.44;101844.56;5479433;26;20511;-68
2024/04/10 00:06:08;;;;;;;;;;;12.00;99.90;;;12.39;83.01;101847.28;5451861;26;20412;-68
2024/04/10 00:08:39;;;;;;;22.65;6.80;;;12.10;99.90;;;12.14;82.95;101846.28;5451018;26;19925;-67
2024/04/10 00:11:07;;;;;;;16.58;6.82;;;12.00;99.90;;;12.07;83.39;101827.69;5450983;26;20003;-68
2024/04/10 00:13:38;;;;;;;15.75;6.40;;;11.90;99.90;;;12.06;83.38;101855.97;5450781;26;20165;-67
2024/04/10 00:16:07;;;;;;;19.00;6.93;;;11.80;99.90;;;11.41;82.96;101732.75;5450751;26;19999;-67
2024/04/10 00:18:39;;;;;;;16.92;6.70;;;11.90;99.90;;;12.11;83.22;101859.56;5450730;26;20034;-68
2024/04/10 00:21:10;;;;;;;19.17;6.88;;;11.80;99.90;;;12.23;83.66;101862.25;5450932;26;19999;-67
2024/04/10 00:23:40;;;;;;;18.02;6.50;;;11.90;99.90;;;12.13;83.57;101856.91;5479308;26;20002;-68
2024/04/10 00:26:08;;;;;;;18.48;5.82;;;11.90;99.90;;;12.20;83.31;101864.00;5479281;26;20007;-68
2024/04/10 00:28:38;;;;;;;15.95;7.00;;;12.00;99.90;;;12.09;84.12;101871.03;5450465;26;20046;-67
2024/04/10 00:31:07;;;;;;;17.52;6.43;;;11.90;99.90;;;12.09;83.85;101879.88;5450642;26;20003;-68
2024/04/10 00:33:39;;;;;;;18.55;6.75;;;11.90;99.90;;;12.38;83.24;101887.97;5450740;26;20011;-67
2024/04/10 00:36:11;;;;;;;16.60;6.38;;;12.00;99.90;;;12.31;83.37;101892.34;5453476;26;20010;-67
2024/04/10 00:38:41;;;;;;;24.73;7.18;;;12.10;99.90;;;12.32;83.36;101894.16;5452658;26;20069;-68
2024/04/10 00:41:08;;;;;;;21.30;6.95;;;12.10;99.90;;;12.32;82.89;101891.50;5452827;26;20028;-67
2024/04/10 00:43:39;;;;;;;24.35;6.72;;;12.10;99.90;;;12.26;82.64;101890.56;5453807;26;20007;-67
2024/04/10 00:46:14;;;;;;;15.18;6.53;;;12.10;99.90;;;12.18;83.19;101871.97;5454435;26;20443;-68
2024/04/10 00:48:46;;;;;;;19.88;7.25;;;12.10;99.90;;;12.25;83.11;101908.22;5452927;26;20038;-67
2024/04/10 00:51:18;;;;;;;19.23;7.03;;;12.10;99.90;;;11.95;82.45;101867.41;5453965;26;20009;-68
2024/04/10 00:53:49;;;;;;;23.23;6.70;;;11.90;99.90;;;11.93;82.42;101914.22;5452833;26;20014;-67
2024/04/10 00:56:17;;;;;;;18.33;6.38;;;11.80;99.90;;;11.84;81.86;101919.47;5453258;26;20000;-67
2024/04/10 00:58:51;;;;;;;20.60;6.65;;;11.60;99.90;;;11.67;81.68;101911.41;5454115;26;19995;-67
2024/04/10 01:01:19;;;;;;;18.85;6.60;;;11.50;99.90;;;11.71;82.43;101922.03;5453472;26;20071;-67
2024/04/10 01:03:49;;;;;;;20.77;6.68;;;11.50;99.90;;;11.67;82.44;101922.88;5452242;26;20369;-68
2024/04/10 01:06:29;;;;;;;;;;;11.50;99.90;;;11.61;81.79;101909.53;5481195;26;20015;-67
2024/04/10 01:09:00;;;;;;;20.40;6.38;;;11.60;99.90;;;11.61;81.80;101937.81;5452640;26;19990;-67
2024/04/10 01:11:31;;;;;;;21.77;6.78;;;11.50;99.90;;;11.63;80.16;101942.25;5450745;26;19999;-67
2024/04/10 01:13:58;;;;;;;;;;;11.50;99.90;;;11.56;80.64;101940.41;5451983;26;20003;-67
2024/04/10 01:16:29;;;;;;;18.30;5.90;;;11.40;99.90;;;11.60;81.20;101955.47;5453232;26;19924;-67
2024/04/10 01:18:57;;;;;;;16.38;6.07;;;11.40;99.90;;;11.74;81.13;101945.91;5448918;26;19999;-67
2024/04/10 01:21:29;;;;;;;23.45;7.70;;;11.50;99.90;;;11.71;80.61;101948.53;5453163;26;20006;-67
2024/04/10 01:23:59;;;;;;;19.58;6.22;;;11.50;99.90;;;11.12;79.61;101887.91;5454039;26;20010;-67
2024/04/10 01:26:30;;;;;;;18.55;6.05;;;11.40;99.90;;;11.56;79.86;101963.38;5450379;26;19999;-67
2024/04/10 01:28:57;;;;;;;23.10;6.60;;;11.30;99.90;;;11.70;79.69;101965.31;5482212;26;20144;-67
2024/04/10 01:31:30;;;;;;;20.88;6.88;;;11.40;99.90;;;11.87;79.72;101959.25;5450709;26;20014;-67
2024/04/10 01:33:58;;;;;;;19.60;6.40;;;11.60;99.90;;;11.82;79.99;101968.94;5479986;26;20023;-67
2024/04/10 01:36:28;;;;;;;23.75;6.50;;;11.60;99.90;;;11.77;80.45;101974.19;5450822;26;20014;-67
2024/04/10 01:38:58;;;;;;;19.55;6.53;;;11.50;99.90;;;11.79;80.08;101976.00;5452580;26;19994;-67
2024/04/10 01:41:29;;;;;;;45.45;7.15;;;11.60;99.90;;;11.82;79.62;101985.75;5450959;26;20475;-67
2024/04/10 01:43:56;;;;;;;21.33;6.63;;;11.60;99.90;;;11.66;80.06;101992.66;5452536;26;20010;-67
2024/04/10 01:46:27;;;;;;;18.98;6.70;;;11.50;99.90;;;11.63;80.34;101983.78;5452188;26;20511;-67
2024/04/10 01:48:54;;;;;;;13.82;5.63;;;11.40;99.90;;;11.60;80.42;101989.94;5448973;26;20054;-67
2024/04/10 01:51:24;;;;;;;16.80;6.22;;;11.40;99.90;;;11.59;80.24;102009.34;5449745;26;20149;-67
2024/04/10 01:53:52;;;;;;;17.27;6.20;;;11.40;99.90;;;10.99;80.29;101907.19;5451712;26;20068;-67
2024/04/10 01:56:25;;;;;;;18.85;6.18;;;11.40;99.90;;;11.61;80.08;102012.88;5448598;26;20015;-68
2024/04/10 01:58:52;;;;;;;19.30;6.57;;;11.40;99.90;;;11.61;81.58;102015.53;5451861;26;20348;-67
2024/04/10 02:01:23;;;;;;;20.70;5.90;;;11.40;99.90;;;11.57;81.88;102021.72;5454793;26;19995;-67
2024/04/10 02:03:51;;;;;;;17.17;6.35;;;11.40;99.90;;;11.39;82.39;102018.88;5451239;26;20002;-67
2024/04/10 02:06:21;;;;;;;21.05;6.38;;;11.20;99.90;;;11.42;83.83;102023.31;5454184;26;20007;-67
2024/04/10 02:08:48;;;;;;;17.17;5.75;;;11.20;99.90;;;11.34;82.69;102014.38;5454616;26;20322;-67
2024/04/10 02:11:28;;;;;;;18.45;6.18;;;11.20;99.90;;;11.27;82.07;102036.38;5454149;26;20022;-68
2024/04/10 02:13:59;;;;;;;22.48;6.00;;;11.10;99.90;;;11.26;82.39;102037.25;5455555;26;19998;-67
2024/04/10 02:16:29;;;;;;;18.40;6.35;;;11.00;99.90;;;11.30;82.31;102036.41;5453775;26;20025;-67
2024/04/10 02:18:57;;;;;;;21.75;5.95;;;11.10;99.90;;;11.38;81.67;102050.63;5454229;26;20011;-67
2024/04/10 02:21:27;;;;;;;18.58;6.03;;;11.10;99.90;;;11.38;81.82;102053.28;5455367;26;20010;-68
2024/04/10 02:23:55;;;;;;;20.52;6.20;;;11.10;99.90;;;11.29;81.73;102032.88;5455109;26;20399;-67
2024/04/10 02:26:25;;;;;;;23.30;7.25;;;11.20;99.90;;;11.48;81.53;102042.78;5451249;26;20160;-68
2024/04/10 02:28:53;;;;;;;20.60;6.28;;;11.30;99.90;;;11.52;81.42;102060.50;5455248;26;20019;-68
2024/04/10 02:31:26;;;;;;;23.63;6.22;;;11.30;99.90;;;11.46;80.88;102068.38;5454981;26;20006;-68
2024/04/10 02:33:53;;;;;;;20.25;6.43;;;11.30;99.90;;;11.46;81.37;102075.44;5451863;26;20006;-68
2024/04/10 02:36:24;;;;;;;22.63;6.32;;;11.20;99.90;;;11.61;81.07;102076.50;5453794;26;20003;-68
2024/04/10 02:38:51;;;;;;;16.55;5.68;;;11.30;99.90;;;11.49;80.69;102078.13;5453984;26;20354;-68
2024/04/10 02:41:21;;;;;;;24.08;6.63;;;11.30;99.90;;;11.48;80.42;102085.19;5454155;26;20022;-68
2024/04/10 02:43:49;;;;;;;20.23;6.47;;;11.30;99.90;;;11.37;80.39;102081.53;5454971;26;19995;-68
2024/04/10 02:46:19;;;;;;;25.52;5.97;;;11.20;99.90;;;11.25;80.21;102064.59;5455016;26;20006;-68
2024/04/10 02:48:49;;;;;;;18.90;6.25;;;11.20;99.90;;;11.42;80.10;102098.34;5453897;26;20360;-67
2024/04/10 02:51:20;;;;;;;21.88;6.00;;;11.20;99.90;;;11.40;80.86;102096.59;5455343;26;20445;-68
2024/04/10 02:53:47;;;;;;;18.17;6.50;;;11.20;99.90;;;10.81;80.36;101966.09;5453840;26;20333;-68
2024/04/10 02:56:19;;;;;;;22.20;6.93;;;11.30;99.90;;;10.90;81.02;101993.56;5452046;26;19999;-68
2024/04/10 02:58:47;;;;;;;20.50;6.03;;;11.20;99.90;;;11.52;81.55;102108.19;5452961;26;20035;-68
2024/04/10 03:01:17;;;;;;;21.23;5.97;;;11.20;99.90;;;11.56;80.58;102107.38;5454572;26;20035;-69
2024/04/10 03:03:44;;;;;;;19.17;5.70;;;11.30;99.90;;;11.43;80.61;102110.75;5454108;26;20289;-68
2024/04/10 03:06:18;;;;;;;21.98;6.38;;;11.20;99.90;;;11.28;80.28;102109.66;5453418;26;20019;-68
2024/04/10 03:08:45;;;;;;;16.95;5.88;;;11.10;99.90;;;10.52;80.39;101975.44;5454546;26;20076;-68
2024/04/10 03:11:18;;;;;;;17.27;6.10;;;11.10;99.90;;;11.23;80.59;102135.19;5452291;26;20041;-68
2024/04/10 03:13:45;;;;;;;20.02;6.97;;;11.00;99.90;;;11.34;80.72;102117.69;5453631;26;20007;-68
2024/04/10 03:16:16;;;;;;;20.42;5.65;;;11.00;99.90;;;11.44;81.09;102123.13;5452852;26;20451;-68
2024/04/10 03:18:44;;;;;;;23.70;6.18;;;11.10;99.90;;;11.43;80.77;102123.09;5452923;26;20070;-68
2024/04/10 03:21:16;;;;;;;19.25;6.38;;;11.20;99.90;;;11.27;80.94;102126.41;5453160;26;20047;-68
2024/04/10 03:23:44;;;;;;;24.83;6.22;;;11.10;99.90;;;11.51;80.71;102138.22;5452776;26;20467;-68
2024/04/10 03:26:14;;;;;;;18.85;5.70;;;11.20;99.90;;;11.39;80.37;102138.06;5452838;26;19995;-67
2024/04/10 03:28:42;;;;;;;;;;;11.20;99.90;;;11.60;80.87;102145.38;5454448;26;20042;-68
2024/04/10 03:31:12;;;;;;;22.88;5.63;;;11.40;99.90;;;11.60;80.55;102148.03;5453538;26;19931;-67
2024/04/10 03:33:39;;;;;;;29.52;6.25;;;11.30;99.90;;;11.43;80.67;102149.59;5454113;26;19995;-67
2024/04/10 03:36:10;;;;;;;20.02;5.50;;;11.20;99.90;;;11.42;80.09;102158.44;5452498;26;20010;-67
2024/04/10 03:38:40;;;;;;;15.25;5.60;;;11.20;99.90;;;11.37;80.48;102150.41;5454133;26;20006;-68
2024/04/10 03:41:10;;;;;;;19.55;5.72;;;11.20;99.90;;;11.41;80.71;102183.13;5452736;26;20003;-67
2024/04/10 03:43:40;;;;;;;23.70;5.80;;;11.20;99.90;;;11.46;80.72;102163.75;5453270;26;20010;-67
2024/04/10 03:46:12;;;;;;;22.40;6.72;;;11.20;99.90;;;11.46;80.68;102166.41;5453838;26;20007;-67
2024/04/10 03:48:43;;;;;;;23.88;6.45;;;11.20;99.90;;;11.44;80.20;102170.81;5454132;26;20006;-68
2024/04/10 03:51:14;;;;;;;23.50;6.20;;;11.20;99.90;;;11.16;81.57;102155.44;5452987;26;20031;-67
2024/04/10 03:53:46;;;;;;;18.45;5.45;;;11.00;99.90;;;11.12;81.04;102155.34;5454044;26;20022;-67
2024/04/10 03:56:14;;;;;;;21.92;5.78;;;11.00;99.90;;;11.30;80.74;102185.66;5451255;26;20017;-67
2024/04/10 03:58:50;;;;;;;15.55;6.10;;;11.00;99.90;;;11.35;80.43;102198.94;5450654;26;20017;-67
2024/04/10 04:01:18;;;;;;;15.02;5.30;;;11.00;99.90;;;11.33;80.16;102201.56;5453958;26;20003;-67
2024/04/10 04:03:48;;;;;;;16.55;6.00;;;11.10;99.90;;;11.30;80.11;102201.53;5453673;26;20007;-67
2024/04/10 04:06:16;;;;;;;19.52;6.18;;;11.10;99.90;;;11.29;80.22;102199.75;5452634;26;20079;-67
2024/04/10 04:08:50;;;;;;;23.45;5.93;;;11.10;99.90;;;11.31;80.88;102207.69;5452612;26;20335;-67
2024/04/10 04:11:18;;;;;;;17.52;5.95;;;11.10;99.90;;;11.35;80.61;102217.47;5454192;26;20009;-67
2024/04/10 04:13:48;;;;;;;23.42;6.03;;;11.10;99.90;;;11.32;80.95;102225.41;5452046;26;19999;-67
2024/04/10 04:16:15;;;;;;;16.50;5.68;;;11.10;99.90;;;11.22;80.62;102204.94;5450414;26;20142;-67
2024/04/10 04:18:46;;;;;;;17.27;5.82;;;11.10;99.90;;;11.44;80.15;102223.78;5453457;26;20005;-67
2024/04/10 04:21:13;;;;;;;18.70;5.88;;;11.20;99.90;;;11.46;79.91;102231.75;5452051;26;20013;-67
2024/04/10 04:23:45;;;;;;;24.63;6.00;;;11.20;99.90;;;11.20;79.86;102194.31;5451538;26;19999;-67
2024/04/10 04:26:15;;;;;;;17.85;5.78;;;11.20;99.90;;;11.45;79.83;102241.47;5482014;26;20310;-67
2024/04/10 04:28:45;;;;;;;17.52;5.90;;;11.20;99.90;;;11.50;79.86;102242.44;5453796;26;19995;-67
2024/04/10 04:31:15;;;;;;;18.30;5.75;;;11.30;99.90;;;11.39;80.34;102237.84;5451317;26;20049;-67
2024/04/10 04:33:45;;;;;;;23.27;5.45;;;11.20;99.90;;;11.34;80.48;102250.16;5453238;26;20014;-68
2024/04/10 04:36:13;;;;;;;25.33;6.53;;;11.10;99.90;;;11.34;80.72;102261.63;5451698;26;20071;-67
2024/04/10 04:38:43;;;;;;;21.85;5.90;;;11.10;99.90;;;11.40;80.42;102272.31;5452822;26;20002;-67
2024/04/10 04:41:11;;;;;;;21.48;5.65;;;11.10;99.90;;;11.50;79.82;102271.56;5481976;26;20342;-67
2024/04/10 04:43:43;;;;;;;21.23;5.85;;;11.20;99.90;;;11.38;79.64;102260.78;5453289;26;19994;-67
2024/04/10 04:46:17;;;;;;;20.70;5.82;;;11.20;99.90;;;11.44;79.55;102260.88;5478540;26;19999;-68
2024/04/10 04:48:47;;;;;;;17.48;5.60;;;11.30;99.90;;;11.57;79.60;102281.41;5453265;26;19994;-67
2024/04/10 04:51:16;;;;;;;15.60;5.55;;;11.30;99.90;;;11.78;78.87;102292.34;5451314;26;19995;-67
2024/04/10 04:53:46;;;;;;;13.35;5.57;;;11.50;99.90;;;11.78;78.61;102297.66;5452484;26;20003;-67
2024/04/10 04:56:13;;;;;;;21.00;5.57;;;11.50;99.90;;;11.69;78.83;102300.16;5452990;26;20010;-67
2024/04/10 04:58:46;;;;;;;19.13;5.72;;;11.40;99.90;;;11.75;78.29;102308.19;5452746;26;20007;-67
2024/04/10 05:01:14;;;;;;;15.32;5.38;;;11.50;99.90;;;11.28;77.95;102211.22;5450680;26;20003;-68
2024/04/10 05:06:30;;;;;;;16.33;5.47;;;11.40;99.90;;;11.82;77.59;102321.53;5451066;26;20009;-67
2024/04/10 05:09:01;;;;;;;18.85;5.63;;;11.50;99.90;;;11.78;76.94;102326.81;5453735;26;20289;-67
2024/04/10 05:11:28;;;;;;;12.35;4.93;;;11.50;99.90;;;11.85;77.28;102332.16;5453151;26;20003;-66
2024/04/10 05:14:01;;;;;;;18.23;5.55;;;11.60;99.90;;;11.70;76.91;102339.06;5451247;26;20479;-67
2024/04/10 05:16:28;;;;;;;20.02;6.05;;;11.40;99.90;;;11.70;77.60;102343.47;5452565;26;20022;-61
2024/04/10 05:19:04;;;;;;;18.33;5.93;;;11.40;99.90;;;11.70;78.04;102362.91;5452308;26;19995;-68
2024/04/10 05:21:32;;;;;;;21.25;5.90;;;11.40;99.90;;;11.76;77.99;102355.06;5450370;26;20003;-68
2024/04/10 05:24:02;;;;;;;20.83;6.07;;;11.50;99.90;;;11.80;78.03;102366.59;5452923;26;19999;-68
2024/04/10 05:26:30;;;;;;;20.95;6.45;;;11.50;99.90;;;11.81;78.12;102367.50;5450002;26;19999;-68
2024/04/10 05:29:03;;;;;;;19.50;5.82;;;11.50;99.90;;;11.58;78.45;102325.59;5453107;26;20010;-67
2024/04/10 05:31:30;;;;;;;16.33;5.68;;;11.50;99.90;;;11.85;77.67;102369.28;5452247;26;19994;-68
2024/04/10 05:34:00;;;;;;;16.98;5.97;;;11.50;99.90;;;11.90;77.60;102380.88;5450287;26;19994;-67
2024/04/10 05:36:28;;;;;;;16.00;5.93;;;11.60;99.90;;;12.01;76.92;102384.56;5453793;26;20003;-67
2024/04/10 05:39:02;;;;;;;16.42;5.53;;;11.70;99.90;;;11.99;77.14;102375.69;5455653;26;19999;-68
2024/04/10 05:41:29;;;;;;;21.02;5.45;;;11.70;99.90;;;12.16;76.99;102390.97;5453810;26;19994;-69
2024/04/10 05:44:02;;;;;;;17.45;5.65;;;11.90;99.90;;;12.17;76.74;102387.47;5455450;26;20360;-69
2024/04/10 05:46:31;;;;;;;16.58;5.35;;;11.90;99.90;;;12.31;76.15;102400.91;5456355;26;20005;-69
2024/04/10 05:49:01;;;;;;;21.80;6.10;;;12.00;99.90;;;12.32;75.55;102379.69;5454871;26;20003;-69
2024/04/10 05:51:29;;;;;;;22.35;6.65;;;12.20;99.90;;;12.63;75.45;102413.69;5454446;26;20522;-69
2024/04/10 05:53:59;;;;;;;17.48;5.20;;;12.30;99.90;;;12.62;74.14;102417.22;5453855;26;20003;-70
2024/04/10 05:56:27;;;;;;;17.75;5.50;;;12.40;99.90;;;12.64;74.35;102420.78;5454209;26;20072;-69
2024/04/10 05:58:57;;;;;;;18.08;5.93;;;12.40;99.90;;;12.70;73.50;102396.97;5455460;26;20317;-69
2024/04/10 06:01:27;;;;;;;13.23;5.20;;;12.60;99.90;;;13.13;73.14;102434.63;5453991;26;20023;-69
2024/04/10 06:03:57;;;;;;;21.95;5.53;;;12.70;99.90;;;13.19;72.86;102432.03;5454183;26;20076;-69
2024/04/10 06:06:25;;;;;;;22.08;5.97;;;12.80;99.90;;;13.38;71.83;102437.56;5455827;26;19999;-69
2024/04/10 06:08:55;;;;;;;18.58;5.25;;;13.00;99.90;;;13.43;71.88;102419.00;5454934;26;19994;-69
2024/04/10 06:11:27;;;;;;;15.70;4.95;;;13.20;99.90;;;13.96;70.73;102446.00;5453517;26;19999;-69
2024/04/10 06:13:57;;;;;;;16.15;6.05;;;13.50;99.90;;;14.10;69.23;102446.97;5455624;26;20006;-70
2024/04/10 06:16:28;;;;;;;18.00;5.95;;;13.70;99.90;;;14.22;68.90;102458.63;5455826;26;20013;-70
2024/04/10 06:18:58;;;;;;;18.95;6.05;;;13.80;99.90;;;14.22;67.62;102458.63;5454251;26;20011;-70
2024/04/10 06:21:25;;;;;;;18.95;5.65;;;13.70;99.90;;;14.27;67.54;102456.88;5454284;26;20003;-70
2024/04/10 06:23:55;;;;;;;17.65;5.82;;;13.80;99.90;;;14.16;67.04;102461.22;5454948;26;20528;-70
2024/04/10 06:26:23;;;;;;;16.02;5.60;;;13.80;99.90;;;14.15;67.36;102466.56;5454060;26;20288;-70
2024/04/10 06:28:54;;;;;;;13.60;5.00;;;13.70;99.90;;;14.24;67.11;102467.50;5453667;26;20005;-70
2024/04/10 06:31:21;;;;;;;20.10;5.85;;;13.80;99.90;;;14.40;67.45;102463.19;5455076;26;20005;-70
2024/04/10 06:33:54;;;;;;;17.30;5.38;;;14.10;99.90;;;14.61;66.16;102473.03;5453440;26;20017;-70
2024/04/10 06:36:22;;;;;;;14.27;5.43;;;14.30;99.90;;;14.80;65.88;102477.56;5452870;26;20013;-70
2024/04/10 06:38:52;;;;;;;13.65;5.25;;;14.50;99.90;;;14.99;64.51;102476.75;5452279;26;20014;-70
2024/04/10 06:41:22;;;;;;;16.67;5.82;;;14.60;99.90;;;15.10;63.99;102478.56;5454787;26;20022;-70
2024/04/10 06:43:50;;;;;;;13.80;5.03;;;14.80;99.90;;;15.15;64.06;102479.47;5455262;26;20011;-70
2024/04/10 06:46:20;;;;;;;16.40;5.32;;;14.80;99.90;;;15.44;64.08;102478.66;5452856;26;20454;-70
2024/04/10 06:48:51;;;;;;;14.35;5.10;;;15.10;99.90;;;14.99;62.28;102482.97;5454782;26;20041;-70
2024/04/10 06:51:21;;;;;;;16.02;5.63;;;14.80;99.90;;;14.95;62.58;102491.84;5452417;26;20149;-70
2024/04/10 06:53:48;;;;;;;14.23;5.40;;;14.60;99.90;;;14.56;62.80;102408.19;5453335;26;20010;-71
2024/04/10 06:56:19;;;;;;;20.02;5.80;;;14.70;99.90;;;15.29;62.81;102492.84;5454466;26;19999;-71
2024/04/10 06:58:46;;;;;;;12.43;5.38;;;15.00;99.90;;;15.45;61.91;102491.13;5454727;26;19995;-71
2024/04/10 07:01:16;;;;;;;17.05;5.22;;;15.20;99.90;;;15.63;61.84;102512.47;5452523;26;20072;-71
2024/04/10 07:03:44;;;;;;;14.50;5.13;;;15.30;99.90;;;15.77;62.24;102518.72;5454594;26;20003;-71
2024/04/10 07:06:19;;;;;;;15.40;5.28;;;15.50;99.90;;;15.60;60.01;102524.03;5453513;26;20018;-71
2024/04/10 07:08:52;;;;;;;21.02;5.50;;;15.40;99.90;;;14.73;61.86;102495.28;5452240;26;19999;-70
2024/04/10 07:11:23;;;;;;;16.83;5.53;;;14.70;99.90;;;14.63;62.28;102533.44;5483138;26;20005;-71
2024/04/10 07:13:53;;;;;;;20.40;5.05;;;14.30;99.90;;;14.68;62.38;102541.44;5454002;26;20339;-70
2024/04/10 07:16:26;;;;;;;12.15;4.90;;;14.40;99.90;;;14.65;62.09;102537.00;5453606;26;20010;-70
2024/04/10 07:18:56;;;;;;;17.88;5.30;;;14.30;99.90;;;14.75;62.15;102517.50;5454788;26;19995;-70
2024/04/10 07:21:29;;;;;;;15.48;4.60;;;14.50;99.90;;;15.05;60.96;102538.97;5453044;26;20068;-70
2024/04/10 07:23:57;;;;;;;14.38;5.30;;;14.80;99.90;;;15.24;61.24;102545.25;5452340;26;20010;-70
2024/04/10 07:26:30;;;;;;;15.55;5.28;;;14.90;99.90;;;15.48;59.92;102563.13;5454606;26;19999;-71
2024/04/10 07:28:58;;;;;;;14.50;4.80;;;15.20;99.90;;;15.42;59.04;102560.44;5452784;26;20010;-71
2024/04/10 07:31:31;;;;;;;10.18;4.55;;;15.20;99.90;;;14.99;59.06;102556.69;5453747;26;20005;-71
2024/04/10 07:34:02;;;;;;;13.38;5.05;;;14.80;99.90;;;14.94;58.92;102540.69;5454279;26;20424;-70
2024/04/10 07:36:37;;;;;;;13.57;4.82;;;14.70;99.90;;;15.11;59.98;102548.75;5450865;26;20014;-70
2024/04/10 07:39:10;;;;;;;13.60;5.38;;;14.80;99.90;;;14.48;60.35;102531.56;5454179;26;19994;-70
2024/04/10 07:41:40;;;;;;;18.05;5.38;;;14.40;99.90;;;14.46;60.41;102559.06;5452493;26;20011;-70
2024/04/10 07:44:08;;;;;;;12.55;5.10;;;14.20;99.90;;;14.42;61.12;102562.56;5452777;26;20010;-70
2024/04/10 07:46:39;;;;;;;15.23;5.22;;;14.20;99.90;;;14.43;61.19;102557.28;5452399;26;20017;-70
2024/04/10 07:49:09;;;;;;;19.38;5.07;;;14.20;99.90;;;14.31;63.00;102553.63;5452753;26;20006;-71
2024/04/10 07:51:43;;;;;;;15.90;5.30;;;14.10;99.90;;;14.68;63.10;102571.63;5450530;26;20341;-70
2024/04/10 07:54:10;;;;;;;12.25;4.38;;;14.30;99.90;;;14.37;60.83;102559.91;5452786;26;20009;-70
2024/04/10 07:56:41;;;;;;;11.90;4.60;;;14.30;99.90;;;14.04;60.55;102570.25;5453688;26;20115;-71
2024/04/10 07:59:08;;;;;;;11.48;4.18;;;14.00;99.90;;;13.86;60.82;102580.72;5453426;26;19998;-70
2024/04/10 08:01:39;;;;;;;11.98;4.45;;;13.70;99.90;;;13.98;61.19;102572.84;5453857;26;20005;-70
2024/04/10 08:04:06;;;;;;;10.10;4.32;;;13.70;99.90;;;14.09;61.31;102591.59;5451972;26;20007;-70
2024/04/10 08:06:38;;;;;;;12.95;4.65;;;13.80;99.90;;;14.41;60.69;102585.66;5480477;26;20003;-70
2024/04/10 08:09:08;;;;;;;10.07;4.40;;;14.10;99.90;;;14.22;60.91;102497.63;5452998;26;20015;-70
2024/04/10 08:11:39;;;;;;;10.88;4.50;;;14.50;99.90;;;15.33;59.34;102599.50;5453625;26;20126;-70
2024/04/10 08:14:06;;;;;;;12.23;4.78;;;15.00;99.90;;;15.84;58.34;102603.22;5454213;26;20009;-70
2024/04/10 08:16:36;;;;;;;15.75;5.47;;;15.50;99.90;;;16.21;57.60;102597.94;5450973;26;20422;-70
2024/04/10 08:19:06;;;;;;;11.40;4.97;;;15.90;99.90;;;16.59;55.40;102607.75;5453608;26;20019;-70
2024/04/10 08:21:38;;;;;;;8.90;4.35;;;16.30;99.90;;;16.89;54.48;102611.25;5451913;26;20035;-70
2024/04/10 08:24:08;;;;;;;11.48;4.43;;;16.60;99.90;;;17.01;53.38;102592.47;5451410;26;20010;-70
2024/04/10 08:26:40;;;;;;;10.48;4.60;;;16.90;99.90;;;17.37;53.65;102594.13;5454005;26;20071;-71
2024/04/10 08:29:09;;;;;;;11.85;4.43;;;17.20;99.90;;;17.76;53.04;102630.53;5451999;26;20155;-71
2024/04/10 08:31:39;;;;;;;10.68;4.85;;;17.50;99.90;;;17.62;53.34;102533.38;5451454;26;20003;-71
2024/04/10 08:34:09;;;;;;;13.18;4.80;;;17.80;99.90;;;18.31;52.59;102637.28;5449619;26;20086;-71
2024/04/10 08:36:39;;;;;;;13.05;4.72;;;18.10;99.90;;;18.66;52.20;102634.38;5452923;26;20017;-71
2024/04/10 08:39:10;;;;;;;11.48;4.00;;;18.40;99.90;;;18.64;50.32;102609.34;5451968;26;20034;-70
2024/04/10 08:41:42;;;;;;;14.32;5.18;;;18.60;99.90;;;18.73;50.96;102633.38;5453528;26;19994;-71
2024/04/10 08:44:11;;;;;;;14.35;4.50;;;18.50;99.90;;;18.88;50.62;102641.28;5452791;26;20443;-71
2024/04/10 08:46:43;;;;;;;9.88;3.80;;;18.60;99.90;;;19.00;48.92;102637.56;5449308;26;20019;-71
2024/04/10 08:49:11;;;;;;;11.10;4.55;;;18.80;99.90;;;18.96;48.93;102628.69;5450189;26;20009;-71
2024/04/10 08:51:44;;;;;;;10.52;4.40;;;18.80;99.90;;;18.64;48.32;102653.13;5451663;26;20463;-71
2024/04/10 08:54:16;;;;;;;11.25;4.07;;;18.50;99.90;;;18.28;47.51;102642.69;5452977;26;20095;-71
2024/04/10 08:56:46;;;;;;;9.48;5.32;;;18.10;99.90;;;17.30;49.28;102620.94;5450097;26;20352;-71
2024/04/10 08:59:14;;;;;;;10.43;4.82;;;17.40;99.90;;;17.17;50.69;102649.50;5451529;26;20011;-71
2024/04/10 09:01:44;;;;;;;10.98;4.50;;;16.90;99.90;;;17.29;50.55;102654.81;5451571;26;20067;-70
2024/04/10 09:04:17;;;;;;;9.48;4.60;;;17.00;99.90;;;17.30;51.28;102655.69;5450730;26;20015;-70
2024/04/10 09:06:49;;;;;;;12.57;4.30;;;17.00;99.90;;;17.58;49.75;102638.66;5452590;26;19995;-71
2024/04/10 09:09:25;;;;;;;9.05;4.70;;;17.40;99.90;;;18.00;48.97;102675.94;5451739;26;19999;-71
2024/04/10 09:11:55;;;;;;;10.52;4.88;;;17.70;99.90;;;17.45;50.43;102669.03;5454854;26;20420;-71
2024/04/10 09:14:23;;;;;;;11.52;5.00;;;17.30;99.90;;;17.62;48.65;102668.09;5456811;26;20013;-71
2024/04/10 09:16:54;;;;;;;11.07;4.65;;;17.40;99.90;;;16.33;49.02;102615.75;5456626;26;20071;-71
2024/04/10 09:19:22;;;;;;;12.30;4.82;;;16.60;99.90;;;16.72;49.37;102665.63;5456786;26;20373;-70
2024/04/10 09:21:59;;;;;;;10.68;4.60;;;16.40;99.90;;;17.03;49.93;102670.91;5454731;26;20018;-71
2024/04/10 09:24:30;;;;;;;8.60;4.45;;;16.70;99.90;;;17.27;49.37;102675.31;5484654;26;20297;-70
2024/04/10 09:27:02;;;;;;;13.70;4.93;;;17.00;99.90;;;17.23;50.04;102675.34;5453940;26;20392;-70
2024/04/10 09:29:29;;;;;;;10.05;4.53;;;16.90;99.90;;;17.13;50.21;102674.47;5454700;26;20003;-70
2024/04/10 09:32:04;;;;;;;8.50;4.20;;;16.90;99.90;;;17.29;48.44;102616.47;5455854;26;20399;-70
2024/04/10 09:34:34;;;;;;;10.27;4.32;;;17.30;99.90;;;18.05;47.22;102671.44;5453908;26;20070;-71
2024/04/10 09:37:07;;;;;;;9.50;4.00;;;17.70;99.90;;;17.41;47.41;102563.78;5482856;26;20003;-70
2024/04/10 09:39:37;;;;;;;10.90;4.90;;;17.80;99.90;;;18.07;47.22;102688.38;5482453;26;20010;-70
2024/04/10 09:42:17;;;;;;;8.82;4.32;;;17.80;99.90;;;18.40;46.35;102685.47;5455734;26;20003;-71
2024/04/10 09:44:48;;;;;;;14.85;4.47;;;18.00;99.90;;;18.80;47.14;102695.00;5453232;26;20133;-70
2024/04/10 09:47:20;;;;;;;10.10;4.18;;;18.50;99.90;;;18.04;44.24;102686.59;5455613;26;20327;-70
2024/04/10 09:49:49;;;;;;;10.30;4.03;;;18.00;95.10;;;17.31;45.10;102687.78;5455841;26;20011;-70
2024/04/10 09:52:20;;;;;;;5.72;3.92;;;17.20;99.90;;;17.99;46.35;102709.84;5455036;26;20432;-70
2024/04/10 09:54:51;;;;;;;7.53;3.45;;;17.50;99.90;;;17.78;44.43;102671.59;5453994;26;19999;-71
2024/04/10 09:57:23;;;;;;;9.43;4.20;;;17.70;97.40;;;17.66;45.55;102698.41;5454594;26;20077;-71
2024/04/10 09:59:51;;;;;;;9.82;4.15;;;17.40;99.90;;;18.24;44.79;102705.22;5455422;26;20031;-70
2024/04/10 10:02:22;;;;;;;6.70;3.88;;;17.80;99.90;;;18.61;43.73;102706.78;5454797;26;20059;-71
2024/04/10 10:04:49;;;;;;;7.50;3.53;;;18.30;96.40;;;19.00;43.64;102699.28;5455852;26;20500;-70
2024/04/10 10:07:23;;;;;;;7.28;3.78;;;18.70;96.30;;;19.24;43.34;102709.78;5452223;26;20013;-71
2024/04/10 10:10:05;;;;;;;6.68;4.00;;;19.00;93.80;;;18.78;41.55;102621.72;5454183;26;20006;-70
2024/04/10 10:12:36;;;;;;;6.28;3.80;;;19.00;85.00;;;19.37;41.99;102714.13;5454532;26;20003;-70
2024/04/10 10:15:08;;;;;;;11.18;4.25;;;19.10;88.50;;;19.59;41.39;102703.09;5454051;26;20010;-71
2024/04/10 10:17:39;;;;;;;8.55;3.80;;;19.30;84.50;;;19.66;40.36;102718.25;5453436;26;20013;-71
2024/04/10 10:20:23;;;;;;;7.35;4.10;;;19.30;79.00;;;19.64;39.46;102717.38;5454173;26;19996;-71
2024/04/10 10:23:02;;;;;;;5.72;3.50;;;19.40;73.90;;;19.60;39.36;102717.44;5454555;26;20003;-71